Time;durP1;ratioP1;P1;durP2;ratioP2;P2;SDS_P1;SDS_P2;PMS_P1;PMS_P2;Temp;Humidity;BMP_temperature;BMP_pressure;BME280_temperature;BME280_humidity;BME280_pressure;Samples;Min_cycle;Max_cycle;Signal;HPM_P1;HPM_P2
2023/05/04 00:02:02;;;;;;;23.95;10.82;;;;;;;8.65;77.12;102073.25;4848830;29;20393;-81
2023/05/04 00:04:27;;;;;;;25.17;10.90;;;;;;;8.65;77.94;102079.47;4847007;29;20057;-80
2023/05/04 00:06:52;;;;;;;22.55;9.93;;;;;;;8.67;77.87;102077.59;4846004;29;20368;-81
2023/05/04 00:09:18;;;;;;;24.05;11.35;;;;;;;8.66;78.43;102070.50;4849195;29;20093;-80
2023/05/04 00:11:43;;;;;;;26.00;11.27;;;;;;;8.67;77.44;102069.56;4848022;29;20056;-80
2023/05/04 00:14:08;;;;;;;25.02;11.52;;;;;;;8.69;77.15;102061.47;4848259;29;20687;-81
2023/05/04 00:16:35;;;;;;;24.02;10.80;;;;;;;8.66;76.99;102065.13;4849622;29;20036;-81
2023/05/04 00:19:00;;;;;;;21.92;10.75;;;;;;;8.67;78.87;102053.50;4847611;29;20045;-80
2023/05/04 00:21:25;;;;;;;23.17;10.45;;;;;;;8.67;76.36;102056.16;4849084;29;20891;-80
2023/05/04 00:23:51;;;;;;;23.80;10.38;;;;;;;8.68;76.38;102049.88;4847615;29;20042;-81
2023/05/04 00:26:16;;;;;;;23.80;10.18;;;;;;;8.68;76.74;102039.16;4847132;29;20040;-80
2023/05/04 00:28:41;;;;;;;23.17;10.90;;;;;;;8.70;76.28;102036.41;4847800;29;20581;-80
2023/05/04 00:31:07;;;;;;;24.45;9.75;;;;;;;8.69;76.11;102037.34;4846510;29;20107;-80
2023/05/04 00:33:32;;;;;;;22.77;10.65;;;;;;;8.65;76.62;102039.28;4850546;29;20038;-80
2023/05/04 00:35:57;;;;;;;24.38;9.98;;;;;;;8.64;77.08;102037.56;4846893;29;20045;-80
2023/05/04 00:38:23;;;;;;;22.65;9.95;;;;;;;8.65;76.97;102031.22;4847250;29;20119;-81
2023/05/04 00:40:48;;;;;;;24.00;9.68;;;;;;;8.64;76.02;102033.97;4847090;29;20041;-81
2023/05/04 00:43:13;;;;;;;23.50;10.63;;;;;;;8.62;76.70;102033.19;4848629;29;20381;-79
2023/05/04 00:45:39;;;;;;;26.83;10.02;;;;;;;8.59;77.12;102030.66;4846771;29;20033;-80
2023/05/04 00:48:05;;;;;;;21.75;9.35;;;;;;;8.56;76.86;102029.00;4846526;29;20041;-81
2023/05/04 00:50:30;;;;;;;22.00;9.82;;;;;;;8.53;78.03;102030.00;4846907;29;20060;-80
2023/05/04 00:52:58;;;;;;;20.00;9.27;;;;;;;8.51;77.93;102031.03;4849083;29;21218;-80
2023/05/04 00:55:24;;;;;;;23.38;9.60;;;;;;;8.50;78.08;102023.91;4848840;29;20040;-81
2023/05/04 00:57:50;;;;;;;21.27;9.75;;;;;;;8.47;78.66;102019.56;4849649;29;20025;-81
2023/05/04 01:00:16;;;;;;;22.05;9.35;;;;;;;8.46;77.38;102022.31;4856694;29;20119;-81
2023/05/04 01:02:42;;;;;;;21.88;9.77;;;;;;;8.42;78.69;102021.56;4855993;29;20137;-81
2023/05/04 01:05:09;;;;;;;20.48;9.40;;;;;;;8.38;80.37;102022.63;4855237;29;20038;-81
2023/05/04 01:07:54;;;;;;;27.60;10.48;;;;;;;8.34;78.51;102029.91;4856583;29;20033;-81
2023/05/04 01:10:28;;;;;;;23.45;9.30;;;;;;;8.32;78.68;102021.09;4860881;29;20119;-81
2023/05/04 01:13:05;;;;;;;24.45;10.20;;;;;;;8.28;78.13;102016.81;4857250;29;20036;-81
2023/05/04 01:15:31;;;;;;;21.85;8.77;;;;;;;8.26;78.93;102010.66;4855896;29;20148;-81
2023/05/04 01:17:56;;;;;;;20.52;8.95;;;;;;;8.21;79.42;102002.84;4857012;29;20041;-81
2023/05/04 01:20:22;;;;;;;22.88;10.25;;;;;;;8.22;79.70;101998.34;4857641;29;20510;-81
2023/05/04 01:22:47;;;;;;;20.45;8.48;;;;;;;8.17;78.89;101997.66;4857649;29;20030;-80
2023/05/04 01:25:13;;;;;;;23.95;9.60;;;;;;;8.14;80.24;101996.03;4856036;29;20037;-81
2023/05/04 01:28:10;;;;;;;20.60;8.75;;;;;;;8.16;79.70;101995.94;4855761;29;20034;-82
2023/05/04 01:30:42;;;;;;;20.25;9.13;;;;;;;8.14;79.25;102001.38;4855400;29;20057;-81
2023/05/04 01:33:08;;;;;;;19.90;9.02;;;;;;;8.12;80.35;101995.19;4855267;29;20502;-81
2023/05/04 01:35:35;;;;;;;20.95;8.38;;;;;;;8.10;79.62;101994.41;4860553;29;20029;-81
2023/05/04 01:38:01;;;;;;;23.30;9.68;;;;;;;8.08;80.35;101995.41;4856667;29;20045;-81
2023/05/04 01:40:26;;;;;;;24.05;9.18;;;;;;;8.07;80.48;101999.00;4857113;29;20091;-81
2023/05/04 01:42:51;;;;;;;23.75;9.75;;;;;;;8.02;80.18;102000.13;4858715;29;20017;-81
2023/05/04 01:45:17;;;;;;;21.05;8.95;;;;;;;7.99;80.75;101994.88;4858984;29;20033;-81
2023/05/04 01:47:43;;;;;;;24.27;9.60;;;;;;;7.95;80.25;101995.97;4860016;29;20026;-81
2023/05/04 01:50:08;;;;;;;23.10;9.77;;;;;;;7.94;80.70;101998.72;4860441;29;20548;-81
2023/05/04 01:52:33;;;;;;;20.63;8.80;;;;;;;7.92;81.14;102004.13;4858937;29;20080;-81
2023/05/04 01:54:59;;;;;;;22.20;9.68;;;;;;;7.85;81.63;101997.31;4859193;29;20029;-81
2023/05/04 01:57:24;;;;;;;21.25;9.60;;;;;;;7.81;81.99;102003.72;4860240;29;20033;-81
2023/05/04 01:59:49;;;;;;;20.40;9.15;;;;;;;7.79;82.30;101995.75;4860289;29;20041;-81
2023/05/04 02:02:15;;;;;;;20.70;8.77;;;;;;;7.76;81.11;101993.22;4855765;29;20037;-80
2023/05/04 02:04:40;;;;;;;24.30;9.60;;;;;;;7.72;82.28;101994.28;4858361;29;20037;-81
2023/05/04 02:07:06;;;;;;;22.77;9.65;;;;;;;7.75;83.51;101998.63;4859955;29;20097;-81
2023/05/04 02:09:31;;;;;;;20.85;8.80;;;;;;;7.72;83.58;101993.38;4860602;29;20449;-81
2023/05/04 02:11:57;;;;;;;21.75;9.82;;;;;;;7.72;81.77;101996.97;4860013;29;20427;-81
2023/05/04 02:14:22;;;;;;;19.80;8.88;;;;;;;7.69;81.64;101995.28;4858193;29;20515;-81
2023/05/04 02:16:47;;;;;;;23.02;8.93;;;;;;;7.66;81.95;101995.41;4869444;29;20370;-81
2023/05/04 02:19:13;;;;;;;20.40;9.05;;;;;;;7.65;82.40;101992.81;4856123;29;20021;-81
2023/05/04 02:21:40;;;;;;;21.75;9.93;;;;;;;7.63;82.84;102000.91;4860200;29;20350;-81
2023/05/04 02:24:05;;;;;;;21.48;9.45;;;;;;;7.60;82.58;101989.44;4860743;29;20108;-81
2023/05/04 02:26:31;;;;;;;21.60;9.73;;;;;;;7.56;83.10;101986.03;4860356;29;20533;-81
2023/05/04 02:28:56;;;;;;;21.77;9.25;;;;;;;7.57;83.25;101978.88;4859872;29;20482;-81
2023/05/04 02:31:21;;;;;;;24.52;10.57;;;;;;;7.53;83.00;101972.78;4858950;29;20501;-81
2023/05/04 02:33:48;;;;;;;24.27;9.55;;;;;;;7.54;83.41;101974.53;4858788;29;20503;-81
2023/05/04 02:36:13;;;;;;;24.50;10.15;;;;;;;7.49;83.56;101976.53;4859163;29;20026;-81
2023/05/04 02:38:38;;;;;;;21.27;9.27;;;;;;;7.45;83.71;101975.81;4859942;29;20048;-81
2023/05/04 02:41:04;;;;;;;21.55;9.13;;;;;;;7.46;83.09;101972.16;4860558;29;20504;-81
2023/05/04 02:43:29;;;;;;;21.55;8.93;;;;;;;7.41;82.90;101974.19;4857442;29;20033;-81
2023/05/04 02:45:54;;;;;;;22.88;9.93;;;;;;;7.37;83.15;101975.25;4848478;29;20089;-81
2023/05/04 02:48:20;;;;;;;23.13;10.13;;;;;;;7.37;83.85;101974.38;4857500;29;20025;-81
2023/05/04 02:50:45;;;;;;;23.63;10.13;;;;;;;7.34;84.05;101972.69;4860413;29;20093;-81
2023/05/04 02:53:10;;;;;;;21.48;9.23;;;;;;;7.33;83.35;101973.63;4858840;29;20046;-81
2023/05/04 02:55:36;;;;;;;21.25;9.25;;;;;;;7.33;83.39;101968.28;4855112;29;20044;-81
2023/05/04 02:58:01;;;;;;;20.85;9.25;;;;;;;7.30;83.83;101977.28;4864442;29;20048;-81
2023/05/04 03:00:26;;;;;;;24.50;10.25;;;;;;;7.29;83.26;101975.56;4858596;29;20177;-81
2023/05/04 03:02:52;;;;;;;22.50;9.73;;;;;;;7.25;83.91;101973.09;4856437;29;20097;-81
2023/05/04 03:05:17;;;;;;;23.20;9.85;;;;;;;7.21;83.03;101971.47;4859924;29;20029;-81
2023/05/04 03:07:42;;;;;;;23.52;9.73;;;;;;;7.18;83.52;101964.44;4859123;29;20029;-81
2023/05/04 03:10:08;;;;;;;22.15;9.75;;;;;;;7.16;83.80;101969.00;4858378;29;20492;-81
2023/05/04 03:12:34;;;;;;;24.75;10.38;;;;;;;7.15;84.73;101973.44;4858522;29;20133;-81
2023/05/04 03:14:59;;;;;;;21.77;9.57;;;;;;;7.11;84.47;101962.94;4858491;29;20089;-81
2023/05/04 03:17:24;;;;;;;22.02;9.00;;;;;;;7.11;84.60;101961.13;4857831;29;20053;-81
2023/05/04 03:19:50;;;;;;;25.42;10.80;;;;;;;7.08;84.96;101961.25;4857875;29;20037;-81
2023/05/04 03:22:15;;;;;;;26.38;11.32;;;;;;;7.09;85.02;101964.81;4859163;29;20037;-81
2023/05/04 03:24:40;;;;;;;21.90;9.45;;;;;;;7.06;85.43;101957.78;4859721;29;20044;-81
2023/05/04 03:27:06;;;;;;;22.48;8.88;;;;;;;7.04;85.36;101950.75;4864553;29;20033;-81
2023/05/04 03:29:31;;;;;;;24.77;10.45;;;;;;;7.02;85.59;101947.28;4857744;29;20070;-81
2023/05/04 03:31:56;;;;;;;24.73;10.15;;;;;;;7.00;86.04;101948.22;4858085;29;20434;-81
2023/05/04 03:34:22;;;;;;;22.35;9.93;;;;;;;6.96;85.36;101943.06;4857651;29;20034;-81
2023/05/04 03:36:48;;;;;;;21.33;10.18;;;;;;;6.97;85.05;101936.78;4853984;29;20041;-81
2023/05/04 03:39:15;;;;;;;21.08;9.70;;;;;;;6.95;85.55;101942.16;4854813;29;20538;-81
2023/05/04 03:41:41;;;;;;;24.25;9.63;;;;;;;6.94;85.57;101935.09;4859363;29;20029;-81
2023/05/04 03:44:06;;;;;;;23.67;9.25;;;;;;;6.92;85.70;101936.09;4859587;29;20052;-81
2023/05/04 03:46:31;;;;;;;23.67;9.73;;;;;;;6.91;85.85;101937.91;4859151;29;20397;-81
2023/05/04 03:48:57;;;;;;;24.90;10.07;;;;;;;6.92;85.19;101934.28;4857240;29;20057;-81
2023/05/04 03:51:22;;;;;;;24.83;9.93;;;;;;;6.90;84.80;101928.16;4858033;29;20068;-81
2023/05/04 03:53:47;;;;;;;21.17;9.30;;;;;;;6.86;85.98;101929.19;4859085;29;20116;-80
2023/05/04 03:56:13;;;;;;;22.55;9.50;;;;;;;6.83;86.26;101934.66;4854757;29;20029;-81
2023/05/04 03:58:38;;;;;;;24.45;10.63;;;;;;;6.88;84.49;101922.00;4856513;29;20148;-81
2023/05/04 04:01:03;;;;;;;23.52;9.52;;;;;;;6.86;85.50;101923.84;4858639;29;20033;-81
2023/05/04 04:03:29;;;;;;;23.52;9.07;;;;;;;6.87;85.93;101928.28;4858740;29;20029;-81
2023/05/04 04:05:55;;;;;;;23.40;9.38;;;;;;;6.90;86.61;101929.97;4858568;29;20021;-81
2023/05/04 04:08:20;;;;;;;21.42;8.63;;;;;;;6.88;85.60;101923.78;4861889;29;20450;-80
2023/05/04 04:10:45;;;;;;;25.95;10.30;;;;;;;6.88;86.46;101932.69;4854890;29;20457;-81
2023/05/04 04:13:11;;;;;;;22.70;9.02;;;;;;;6.85;86.94;101927.44;4857451;29;20033;-81
2023/05/04 04:15:36;;;;;;;19.85;9.43;;;;;;;6.87;87.17;101925.59;4856850;29;20045;-81
2023/05/04 04:18:01;;;;;;;21.60;9.85;;;;;;;6.87;87.22;101925.59;4857739;29;20037;-82
2023/05/04 04:20:27;;;;;;;23.17;10.05;;;;;;;6.87;87.15;101922.94;4858160;29;20041;-81
2023/05/04 04:22:55;;;;;;;22.48;10.50;;;;;;;6.87;86.09;101920.25;4858858;29;20029;-81
2023/05/04 04:25:20;;;;;;;21.35;9.50;;;;;;;6.90;85.95;101920.13;4857414;29;20167;-81
2023/05/04 04:27:45;;;;;;;22.33;9.02;;;;;;;6.93;85.54;101914.66;4859506;29;20463;-81
2023/05/04 04:30:12;;;;;;;21.20;9.63;;;;;;;6.99;86.28;101908.19;4854929;29;20041;-81
2023/05/04 04:32:37;;;;;;;21.00;9.60;;;;;;;7.02;85.10;101907.19;4856141;29;20393;-81
2023/05/04 04:35:03;;;;;;;24.27;9.23;;;;;;;7.03;84.00;101908.91;4857509;29;20033;-81
2023/05/04 04:37:28;;;;;;;20.73;9.55;;;;;;;7.03;84.54;101903.56;4851260;29;20378;-81
2023/05/04 04:39:54;;;;;;;23.52;9.55;;;;;;;7.05;86.09;101907.94;4857586;29;20257;-81
2023/05/04 04:42:20;;;;;;;22.70;10.23;;;;;;;7.06;85.77;101912.34;4854612;29;20036;-81
2023/05/04 04:44:45;;;;;;;21.98;10.25;;;;;;;7.09;84.94;101909.53;4855415;29;20462;-81
2023/05/04 04:47:10;;;;;;;20.92;9.48;;;;;;;7.12;85.38;101911.22;4856353;29;20057;-81
2023/05/04 04:49:36;;;;;;;21.10;9.25;;;;;;;7.16;84.57;101916.38;4856304;29;20560;-81
2023/05/04 04:52:01;;;;;;;22.50;9.45;;;;;;;7.18;84.16;101913.63;4856975;29;20470;-82
2023/05/04 04:54:27;;;;;;;19.88;8.65;;;;;;;7.21;85.28;101912.66;4856508;29;20131;-81
2023/05/04 04:56:52;;;;;;;22.60;9.10;;;;;;;7.23;84.67;101911.63;4858478;29;20374;-82
2023/05/04 04:59:17;;;;;;;23.55;9.20;;;;;;;7.28;85.00;101908.78;4857577;29;20025;-82
2023/05/04 05:01:43;;;;;;;23.17;9.50;;;;;;;7.27;84.91;101918.59;4855936;29;20458;-81
2023/05/04 05:04:08;;;;;;;24.38;10.05;;;;;;;7.31;84.85;101920.19;4857726;29;20032;-81
2023/05/04 05:06:33;;;;;;;22.30;9.63;;;;;;;7.37;85.20;101919.06;4857112;29;20363;-81
2023/05/04 05:08:59;;;;;;;20.67;9.02;;;;;;;7.38;85.14;101923.50;4856067;29;20086;-80
2023/05/04 05:11:24;;;;;;;20.80;9.55;;;;;;;7.41;84.23;101922.47;4855486;29;20057;-81
2023/05/04 05:13:50;;;;;;;22.98;8.82;;;;;;;7.43;85.32;101918.81;4853314;29;20491;-81
2023/05/04 05:16:15;;;;;;;21.63;8.93;;;;;;;7.45;85.62;101919.63;4853348;29;20478;-81
2023/05/04 05:18:41;;;;;;;24.60;9.75;;;;;;;7.50;84.33;101919.44;4857739;29;20029;-82
2023/05/04 05:21:08;;;;;;;20.98;9.07;;;;;;;7.53;83.31;101927.31;4859756;29;20033;-81
2023/05/04 05:23:34;;;;;;;21.85;8.85;;;;;;;7.58;82.18;101921.75;4859969;29;20030;-81
2023/05/04 05:26:00;;;;;;;22.77;8.75;;;;;;;7.62;82.96;101921.56;4860012;29;20062;-81
2023/05/04 05:28:25;;;;;;;20.75;8.73;;;;;;;7.69;82.09;101924.84;4858714;29;20038;-81
2023/05/04 05:30:51;;;;;;;21.92;8.85;;;;;;;7.74;81.45;101927.31;4859208;29;20045;-81
2023/05/04 05:33:17;;;;;;;21.38;9.38;;;;;;;7.79;82.67;101922.63;4859427;29;20128;-81
2023/05/04 05:35:42;;;;;;;23.55;9.02;;;;;;;7.81;81.92;101916.25;4859906;29;20121;-81
2023/05/04 05:38:08;;;;;;;20.38;8.68;;;;;;;7.86;81.91;101922.28;4859564;29;20136;-81
2023/05/04 05:40:33;;;;;;;20.30;8.63;;;;;;;7.93;81.37;101930.03;4859525;29;20033;-81
2023/05/04 05:42:59;;;;;;;23.15;9.20;;;;;;;7.99;82.47;101929.75;4859639;29;20035;-82
2023/05/04 05:45:24;;;;;;;21.50;9.52;;;;;;;8.04;82.35;101927.75;4859751;29;20029;-81
2023/05/04 05:47:50;;;;;;;23.50;9.13;;;;;;;8.10;80.08;101918.59;4859953;29;20105;-81
2023/05/04 05:50:17;;;;;;;24.70;9.65;;;;;;;8.15;80.59;101921.91;4860068;29;20057;-81
2023/05/04 05:52:42;;;;;;;20.67;8.98;;;;;;;8.21;81.28;101917.16;4858587;29;20442;-81
2023/05/04 05:55:08;;;;;;;21.70;8.48;;;;;;;8.27;81.26;101915.09;4859507;29;20033;-81
2023/05/04 05:57:34;;;;;;;21.65;9.25;;;;;;;8.32;80.42;101913.09;4858794;29;20038;-81
2023/05/04 05:59:59;;;;;;;19.63;7.70;;;;;;;8.35;79.25;101910.28;4857702;29;20061;-81
2023/05/04 06:02:25;;;;;;;21.75;8.90;;;;;;;8.40;80.69;101908.22;4849959;29;20048;-81
2023/05/04 06:04:50;;;;;;;22.95;8.48;;;;;;;8.46;80.39;101907.97;4857806;29;20028;-81
2023/05/04 06:07:16;;;;;;;21.80;9.00;;;;;;;8.53;80.08;101897.84;4859191;29;20022;-82
2023/05/04 06:09:41;;;;;;;24.05;9.27;;;;;;;8.57;79.85;101899.44;4858593;29;20068;-81
2023/05/04 06:12:12;;;;;;;21.58;8.95;;;;;;;8.63;78.69;101896.44;4858869;29;20061;-82
2023/05/04 06:14:38;;;;;;;21.17;8.82;;;;;;;8.70;80.58;101887.19;4859678;29;20053;-81
2023/05/04 06:17:03;;;;;;;23.55;9.15;;;;;;;8.77;79.60;101892.22;4855872;29;20086;-81
2023/05/04 06:19:29;;;;;;;22.83;8.73;;;;;;;8.83;77.92;101886.56;4859127;29;20037;-82
2023/05/04 06:21:54;;;;;;;18.10;8.05;;;;;;;8.88;79.44;101884.53;4860479;29;20035;-81
2023/05/04 06:24:21;;;;;;;20.35;8.75;;;;;;;8.94;78.83;101878.84;4859414;29;20033;-82
2023/05/04 06:26:46;;;;;;;21.80;8.23;;;;;;;9.02;78.40;101876.66;4855645;29;20520;-81
2023/05/04 06:29:12;;;;;;;20.70;8.93;;;;;;;9.09;78.63;101874.53;4856818;29;20033;-81
2023/05/04 06:31:37;;;;;;;22.02;9.38;;;;;;;9.15;78.81;101876.94;4856231;29;20082;-81
2023/05/04 06:34:03;;;;;;;22.48;8.52;;;;;;;9.25;79.37;101874.63;4858836;29;20106;-81
2023/05/04 06:36:28;;;;;;;24.65;9.77;;;;;;;9.33;77.11;101868.88;4854418;29;20485;-81
2023/05/04 06:38:56;;;;;;;22.25;8.90;;;;;;;9.39;77.44;101869.41;4858875;29;20049;-81
2023/05/04 06:41:22;;;;;;;23.13;8.82;;;;;;;9.47;78.95;101869.00;4865690;29;20165;-81
2023/05/04 06:43:47;;;;;;;20.17;8.77;;;;;;;9.52;75.82;101861.59;4856126;29;20120;-81
2023/05/04 06:46:12;;;;;;;22.55;8.95;;;;;;;9.58;75.06;101863.94;4859141;29;20034;-82
2023/05/04 06:48:41;;;;;;;21.50;8.30;;;;;;;9.62;73.60;101864.69;4859255;29;20077;-82
2023/05/04 06:51:06;;;;;;;20.85;8.68;;;;;;;9.69;76.07;101863.38;4858294;29;20030;-81
2023/05/04 06:53:31;;;;;;;19.77;8.38;;;;;;;9.74;75.67;101852.41;4858264;29;20223;-81
2023/05/04 06:55:57;;;;;;;22.35;8.43;;;;;;;9.80;73.82;101857.44;4861999;29;20037;-81
2023/05/04 06:58:22;;;;;;;20.77;9.38;;;;;;;9.87;73.41;101863.34;4857249;29;20406;-82
2023/05/04 07:00:47;;;;;;;19.63;9.18;;;;;;;9.94;73.76;101854.88;4856896;29;20501;-82
2023/05/04 07:03:13;;;;;;;21.05;9.20;;;;;;;10.01;74.24;101850.03;4859442;29;20107;-81
2023/05/04 07:05:38;;;;;;;24.65;9.30;;;;;;;10.08;73.86;101847.88;4859094;29;20500;-81
2023/05/04 07:08:03;;;;;;;22.45;8.80;;;;;;;10.15;74.12;101846.59;4858381;29;20458;-82
2023/05/04 07:10:29;;;;;;;20.25;8.00;;;;;;;10.21;72.62;101846.25;4856926;29;20040;-81
2023/05/04 07:12:54;;;;;;;20.02;8.25;;;;;;;10.28;73.22;101839.56;4858287;29;20034;-81
2023/05/04 07:15:20;;;;;;;23.95;8.98;;;;;;;10.37;73.67;101842.75;4857969;29;20169;-82
2023/05/04 07:17:46;;;;;;;23.05;9.02;;;;;;;10.44;73.70;101839.63;4858322;29;20048;-81
2023/05/04 07:20:12;;;;;;;19.10;8.00;;;;;;;10.53;71.74;101834.66;4854143;29;20443;-82
2023/05/04 07:22:38;;;;;;;19.35;8.63;;;;;;;10.61;74.49;101832.41;4856245;29;20033;-81
2023/05/04 07:25:03;;;;;;;24.88;9.02;;;;;;;10.70;72.67;101828.31;4853482;29;20570;-82
2023/05/04 07:27:29;;;;;;;23.38;8.80;;;;;;;10.80;71.10;101827.66;4859129;29;20119;-82
2023/05/04 07:29:55;;;;;;;23.83;8.65;;;;;;;10.93;71.02;101833.19;4854571;29;20541;-82
2023/05/04 07:32:20;;;;;;;21.73;7.57;;;;;;;11.02;69.06;101826.41;4854742;29;20029;-82
2023/05/04 07:34:45;;;;;;;20.48;7.25;;;;;;;11.11;68.89;101823.19;4863385;29;20040;-82
2023/05/04 07:37:12;;;;;;;19.80;8.07;;;;;;;11.19;68.51;101828.09;4858181;29;20101;-82
2023/05/04 07:39:37;;;;;;;20.73;9.18;;;;;;;11.27;70.02;101828.47;4856250;29;20033;-81
2023/05/04 07:42:03;;;;;;;21.42;8.98;;;;;;;11.34;68.94;101829.00;4847925;29;20033;-79
2023/05/04 07:44:30;;;;;;;20.48;8.43;;;;;;;11.42;69.61;101834.78;4856584;29;20098;-79
2023/05/04 07:46:57;;;;;;;21.30;8.13;;;;;;;11.50;67.53;101824.38;4856910;29;20392;-79
2023/05/04 07:49:22;;;;;;;23.05;8.48;;;;;;;11.61;69.07;101828.25;4856801;29;20485;-79
2023/05/04 07:51:48;;;;;;;20.08;8.18;;;;;;;11.69;67.32;101832.19;4850070;29;20120;-79
2023/05/04 07:54:14;;;;;;;22.05;8.05;;;;;;;11.77;68.08;101826.34;4850323;29;20062;-79
2023/05/04 07:56:39;;;;;;;21.15;8.60;;;;;;;11.85;66.14;101825.84;4855243;29;20049;-79
2023/05/04 07:59:05;;;;;;;21.33;8.43;;;;;;;11.94;67.87;101828.00;4850146;29;20040;-79
2023/05/04 08:01:30;;;;;;;23.02;8.90;;;;;;;12.01;66.09;101823.94;4856861;29;20045;-77
2023/05/04 08:03:55;;;;;;;19.10;8.02;;;;;;;12.12;67.56;101817.84;4855307;29;20443;-79
2023/05/04 08:06:21;;;;;;;19.42;8.20;;;;;;;12.21;66.65;101816.41;4857922;29;20033;-80
2023/05/04 08:08:48;;;;;;;23.67;8.45;;;;;;;12.28;65.37;101817.72;4859470;29;20094;-80
2023/05/04 08:11:14;;;;;;;21.15;8.15;;;;;;;12.44;68.55;101811.34;4856432;29;20029;-79
2023/05/04 08:13:40;;;;;;;20.58;8.65;;;;;;;12.51;63.17;101805.44;4854614;29;20488;-80
2023/05/04 08:16:06;;;;;;;20.88;8.10;;;;;;;12.62;63.63;101803.88;4859416;29;20037;-80
2023/05/04 08:18:31;;;;;;;20.35;8.70;;;;;;;12.72;65.69;101799.59;4856752;29;20049;-79
2023/05/04 08:20:57;;;;;;;20.27;8.40;;;;;;;12.74;63.00;101801.22;4855811;29;20533;-78
2023/05/04 08:23:23;;;;;;;21.10;8.32;;;;;;;12.80;63.32;101790.97;4852001;29;20029;-80
2023/05/04 08:25:48;;;;;;;22.45;8.02;;;;;;;12.89;64.98;101798.44;4853328;29;20029;-79
2023/05/04 08:28:13;;;;;;;20.95;8.30;;;;;;;12.94;63.74;101799.00;4852112;29;20473;-79
2023/05/04 08:30:39;;;;;;;21.67;9.00;;;;;;;13.03;65.79;101800.19;4856905;29;20033;-79
2023/05/04 08:33:04;;;;;;;20.17;8.25;;;;;;;13.06;65.76;101792.78;4857230;29;20482;-79
2023/05/04 08:35:29;;;;;;;20.92;8.27;;;;;;;13.12;64.65;101791.50;4857799;29;20041;-79
2023/05/04 08:37:55;;;;;;;19.90;8.02;;;;;;;13.13;65.18;101790.50;4857295;29;20040;-80
2023/05/04 08:40:22;;;;;;;20.35;8.07;;;;;;;13.20;63.62;101783.69;4857105;29;20095;-80
2023/05/04 08:42:49;;;;;;;25.20;8.05;;;;;;;13.29;66.06;101774.97;4855955;29;20052;-79
2023/05/04 08:45:15;;;;;;;18.05;7.50;;;;;;;13.35;65.85;101776.41;4852116;29;20030;-78
2023/05/04 08:47:44;;;;;;;18.92;7.70;;;;;;;13.41;62.75;101761.59;4852716;29;20056;-79
2023/05/04 08:50:11;;;;;;;20.20;7.75;;;;;;;13.49;67.97;101761.94;4853315;29;20124;-78
2023/05/04 08:52:37;;;;;;;21.10;8.50;;;;;;;13.51;64.90;101751.03;4853337;29;20030;-79
2023/05/04 08:55:04;;;;;;;21.27;9.02;;;;;;;13.61;67.01;101743.97;4858644;29;20112;-78
2023/05/04 08:57:30;;;;;;;18.83;7.55;;;;;;;13.63;64.94;101745.59;4859228;29;20037;-78
2023/05/04 08:59:56;;;;;;;20.77;8.07;;;;;;;13.72;62.82;101738.69;4860947;29;20036;-78
2023/05/04 09:02:23;;;;;;;20.02;7.68;;;;;;;13.85;61.25;101745.88;4863257;29;20025;-79
2023/05/04 09:04:50;;;;;;;20.05;7.93;;;;;;;13.95;60.50;101741.53;4859273;29;20164;-78
2023/05/04 09:07:20;;;;;;;24.65;8.30;;;;;;;14.03;61.16;101740.97;4861876;29;20093;-79
2023/05/04 09:09:55;;;;;;;24.02;9.45;;;;;;;14.05;64.43;101739.88;4861718;29;20578;-78
2023/05/04 09:12:21;;;;;;;21.42;8.48;;;;;;;14.08;62.75;101739.63;4859148;29;20402;-78
2023/05/04 09:14:46;;;;;;;20.00;8.50;;;;;;;14.12;62.18;101735.75;4861646;29;20033;-77
2023/05/04 09:17:13;;;;;;;21.00;9.15;;;;;;;14.20;61.02;101740.56;4860217;29;20033;-79
2023/05/04 09:19:42;;;;;;;25.00;9.05;;;;;;;14.27;61.41;101735.56;4861795;29;20504;-78
2023/05/04 09:22:15;;;;;;;19.77;7.77;;;;;;;14.34;61.18;101737.69;4857222;29;20479;-78
2023/05/04 09:24:41;;;;;;;20.25;7.85;;;;;;;14.43;63.91;101733.44;4861585;29;20033;-78
2023/05/04 09:27:10;;;;;;;18.55;7.25;;;;;;;14.44;63.36;101734.31;4859621;29;20078;-77
2023/05/04 09:29:39;;;;;;;21.25;7.70;;;;;;;14.46;60.79;101737.75;4861890;29;20034;-79
2023/05/04 09:32:08;;;;;;;19.58;7.65;;;;;;;14.47;63.21;101731.38;4861142;29;20140;-79
2023/05/04 09:34:36;;;;;;;21.92;8.05;;;;;;;14.51;60.99;101730.16;4861346;29;20160;-80
2023/05/04 09:37:02;;;;;;;21.02;7.25;;;;;;;14.61;59.68;101720.41;4861571;29;20033;-80
2023/05/04 09:39:28;;;;;;;18.75;6.53;;;;;;;14.73;63.42;101725.84;4861190;29;20112;-79
2023/05/04 09:41:54;;;;;;;20.13;7.05;;;;;;;14.71;63.53;101719.69;4861078;29;20026;-79
2023/05/04 09:44:21;;;;;;;21.83;8.23;;;;;;;14.72;62.74;101724.13;4860883;29;20028;-79
2023/05/04 09:46:57;;;;;;;17.20;6.28;;;;;;;14.85;64.45;101722.19;4860901;29;20131;-79
2023/05/04 09:49:33;;;;;;;20.00;7.20;;;;;;;14.90;62.73;101717.28;4851879;29;20053;-79
2023/05/04 09:52:01;;;;;;;18.95;6.72;;;;;;;14.95;62.45;101717.78;4861137;29;20490;-79
2023/05/04 09:54:28;;;;;;;20.38;7.70;;;;;;;14.96;60.91;101716.78;4860774;29;20038;-79
2023/05/04 09:56:58;;;;;;;20.25;7.38;;;;;;;15.05;58.76;101711.66;4860876;29;20040;-80
2023/05/04 09:59:28;;;;;;;18.70;7.30;;;;;;;15.14;61.35;101713.63;4862154;29;20125;-80
2023/05/04 10:01:53;;;;;;;19.02;7.57;;;;;;;15.15;60.76;101707.22;4863710;29;20029;-80
2023/05/04 10:04:19;;;;;;;17.75;7.15;;;;;;;15.19;60.28;101695.19;4857811;29;20028;-81
2023/05/04 10:06:45;;;;;;;20.95;7.95;;;;;;;15.29;58.24;101695.31;4857345;29;20504;-82
2023/05/04 10:09:11;;;;;;;21.50;8.05;;;;;;;15.44;60.30;101687.78;4860392;29;20046;-81
2023/05/04 10:11:37;;;;;;;20.60;7.55;;;;;;;15.49;60.32;101670.19;4859496;29;20355;-81
2023/05/04 10:14:02;;;;;;;18.10;7.05;;;;;;;15.46;58.39;101673.16;4859126;29;20033;-83
2023/05/04 10:17:06;;;;;;;18.63;7.68;;;;;;;15.54;60.56;101667.09;4859026;29;20489;-82
2023/05/04 10:19:37;;;;;;;20.95;7.70;;;;;;;15.64;58.52;101653.66;4837915;29;20061;-81
2023/05/04 10:22:34;;;;;;;18.85;6.60;;;;;;;15.76;60.76;101654.50;4840904;29;20048;-83
2023/05/04 10:25:06;;;;;;;18.77;7.60;;;;;;;15.86;59.87;101640.09;4854096;29;20517;-82
2023/05/04 10:27:43;;;;;;;22.23;7.43;;;;;;;15.93;60.61;101636.84;4832370;29;20135;-82
2023/05/04 10:30:10;;;;;;;21.02;7.18;;;;;;;16.08;57.77;101627.44;4834139;29;20045;-82
2023/05/04 10:32:38;;;;;;;21.92;9.10;;;;;;;16.12;56.94;101634.34;4848160;29;20170;-82
2023/05/04 10:35:08;;;;;;;20.00;7.22;;;;;;;16.17;58.63;101631.22;4835560;29;20521;-80
2023/05/04 10:37:35;;;;;;;20.30;8.60;;;;;;;16.27;55.40;101626.75;4849054;29;20169;-82
2023/05/04 10:40:00;;;;;;;19.48;7.25;;;;;;;16.29;56.30;101619.31;4834258;29;20033;-80
2023/05/04 10:42:25;;;;;;;22.42;8.43;;;;;;;16.35;55.70;101613.38;4834858;29;20038;-83
2023/05/04 10:44:55;;;;;;;20.08;7.63;;;;;;;16.43;55.77;101604.59;4838258;29;20102;-75
2023/05/04 10:47:31;;;;;;;22.10;7.53;;;;;;;16.48;57.50;101602.31;4856057;29;20499;-75
2023/05/04 10:50:03;;;;;;;29.40;8.75;;;;;;;16.62;55.28;101593.00;4845309;29;20045;-76
2023/05/04 10:52:29;;;;;;;20.50;7.45;;;;;;;16.71;58.05;101586.75;4850979;29;20044;-75
2023/05/04 10:55:02;;;;;;;17.77;6.75;;;;;;;16.67;56.97;101579.88;4847645;29;20037;-75
2023/05/04 10:57:29;;;;;;;20.88;7.53;;;;;;;16.63;58.63;101575.69;4849334;29;20485;-75
2023/05/04 10:59:56;;;;;;;16.08;5.43;;;;;;;16.58;60.59;101569.84;4856194;29;20033;-75
2023/05/04 11:02:23;;;;;;;15.18;5.55;;;;;;;16.66;59.50;101567.31;4852042;29;20052;-77
2023/05/04 11:05:00;;;;;;;18.92;7.10;;;;;;;16.76;58.16;101562.78;4856172;29;20089;-76
2023/05/04 11:07:36;;;;;;;17.92;6.13;;;;;;;16.81;60.29;101561.50;4852068;29;20076;-76
2023/05/04 11:10:02;;;;;;;21.17;6.88;;;;;;;16.92;53.57;101558.75;4857620;29;20388;-77
2023/05/04 11:12:29;;;;;;;18.65;6.88;;;;;;;17.00;57.87;101555.31;4858176;29;20125;-77
2023/05/04 11:15:08;;;;;;;20.33;6.63;;;;;;;16.96;57.35;101549.31;4859751;29;20030;-77
2023/05/04 11:17:43;;;;;;;22.95;6.28;;;;;;;16.98;56.48;101546.47;4858248;29;20394;-77
2023/05/04 11:20:09;;;;;;;21.30;6.72;;;;;;;17.09;54.86;101539.06;4858349;29;20513;-77